createdAt,value
2023-05-02T00:00:32.578Z,0.00
2023-05-02T00:01:32.578Z,0.00
2023-05-02T00:02:32.696Z,0.00
2023-05-02T00:03:32.582Z,0.00
2023-05-02T00:04:32.603Z,0.00
2023-05-02T00:05:32.508Z,0.00
2023-05-02T00:06:32.532Z,0.00
2023-05-02T00:07:32.502Z,0.00
2023-05-02T00:08:32.470Z,0.00
2023-05-02T00:09:32.474Z,0.00
2023-05-02T00:10:32.482Z,0.00
2023-05-02T00:11:32.426Z,0.00
2023-05-02T00:12:32.436Z,0.00
2023-05-02T00:13:32.406Z,0.00
2023-05-02T00:14:32.394Z,0.00
2023-05-02T00:15:32.398Z,0.00
2023-05-02T00:16:32.384Z,0.00
2023-05-02T00:17:32.509Z,0.00
2023-05-02T00:18:32.344Z,0.00
2023-05-02T00:19:32.297Z,0.00
2023-05-02T00:20:32.322Z,0.00
2023-05-02T00:21:32.339Z,0.00
2023-05-02T00:22:32.331Z,0.00
2023-05-02T00:23:32.239Z,0.00
2023-05-02T00:24:32.352Z,0.00
2023-05-02T00:25:32.230Z,0.00
2023-05-02T00:26:32.204Z,0.00
2023-05-02T00:27:32.230Z,0.00
2023-05-02T00:28:32.205Z,0.00
2023-05-02T00:29:32.189Z,0.00
2023-05-02T00:30:32.199Z,0.00
2023-05-02T00:31:32.272Z,0.00
2023-05-02T00:32:32.216Z,0.00
2023-05-02T00:33:32.145Z,0.00
2023-05-02T00:34:32.123Z,0.00
2023-05-02T00:35:32.109Z,0.00
2023-05-02T00:36:32.111Z,0.00
2023-05-02T00:37:32.130Z,0.00
2023-05-02T00:38:32.087Z,0.00
2023-05-02T00:39:32.070Z,0.00
2023-05-02T00:40:32.042Z,0.00
2023-05-02T00:41:32.042Z,0.00
2023-05-02T00:42:31.988Z,0.00
2023-05-02T00:43:32.034Z,0.00
2023-05-02T00:44:32.016Z,0.00
2023-05-02T00:45:31.976Z,0.00
2023-05-02T00:46:32.032Z,0.00
2023-05-02T00:47:31.945Z,0.00
2023-05-02T00:48:31.920Z,0.00
2023-05-02T00:49:31.941Z,0.00
2023-05-02T00:50:31.941Z,0.00
2023-05-02T00:51:31.920Z,0.00
2023-05-02T00:52:31.877Z,0.00
2023-05-02T00:53:31.847Z,0.00
2023-05-02T00:54:31.825Z,0.00
2023-05-02T00:55:31.852Z,0.00
2023-05-02T00:56:31.840Z,0.00
2023-05-02T00:57:31.804Z,0.00
2023-05-02T00:58:31.791Z,0.00
2023-05-02T00:59:31.781Z,0.00
2023-05-02T01:00:31.812Z,0.00
2023-05-02T01:01:31.810Z,0.00
2023-05-02T01:02:31.894Z,0.00
2023-05-02T01:03:31.865Z,0.00
2023-05-02T01:04:31.774Z,0.00
2023-05-02T01:05:31.697Z,0.00
2023-05-02T01:06:31.805Z,0.00
2023-05-02T01:07:31.688Z,0.00
2023-05-02T01:08:31.666Z,0.00
2023-05-02T01:09:31.662Z,0.00
2023-05-02T01:10:31.641Z,0.00
2023-05-02T01:11:31.700Z,0.00
2023-05-02T01:12:31.690Z,0.00
2023-05-02T01:13:31.602Z,0.00
2023-05-02T01:14:31.635Z,0.00
2023-05-02T01:15:31.556Z,0.00
2023-05-02T01:16:31.615Z,0.00
2023-05-02T01:17:31.578Z,0.00
2023-05-02T01:18:31.541Z,0.00
2023-05-02T01:19:31.551Z,0.00
2023-05-02T01:20:31.524Z,0.00
2023-05-02T01:21:31.462Z,0.00
2023-05-02T01:22:31.495Z,0.00
2023-05-02T01:23:31.470Z,0.00
2023-05-02T01:24:31.450Z,0.00
2023-05-02T01:25:31.429Z,0.00
2023-05-02T01:26:31.424Z,0.00
2023-05-02T01:27:31.448Z,0.00
2023-05-02T01:28:31.414Z,0.00
2023-05-02T01:29:31.447Z,0.00
2023-05-02T01:30:31.362Z,0.00
2023-05-02T01:31:31.381Z,0.00
2023-05-02T01:32:31.410Z,0.00
2023-05-02T01:33:31.310Z,0.00
2023-05-02T01:34:31.339Z,0.00
2023-05-02T01:35:31.305Z,0.00
2023-05-02T01:36:31.313Z,0.00
2023-05-02T01:37:31.257Z,0.00
2023-05-02T01:38:31.429Z,0.00
2023-05-02T01:39:31.239Z,0.00
2023-05-02T01:40:31.233Z,0.00
2023-05-02T01:41:31.266Z,0.00
2023-05-02T01:42:31.232Z,0.00
2023-05-02T01:43:31.196Z,0.00
2023-05-02T01:44:31.170Z,0.00
2023-05-02T01:45:31.164Z,0.00
2023-05-02T01:46:31.166Z,0.00
2023-05-02T01:47:31.187Z,0.00
2023-05-02T01:48:31.115Z,0.00
2023-05-02T01:49:31.088Z,0.00
2023-05-02T01:50:31.091Z,0.00
2023-05-02T01:51:31.095Z,0.00
2023-05-02T01:52:31.108Z,0.00
2023-05-02T01:53:31.064Z,0.00
2023-05-02T01:54:31.026Z,0.00
2023-05-02T01:55:31.077Z,0.00
2023-05-02T01:56:31.040Z,0.00
2023-05-02T01:57:31.042Z,0.00
2023-05-02T01:58:31.013Z,0.00
2023-05-02T01:59:30.967Z,0.00
2023-05-02T02:00:30.982Z,0.00
2023-05-02T02:01:30.986Z,0.00
2023-05-02T02:02:30.922Z,0.00
2023-05-02T02:03:30.978Z,0.00
2023-05-02T02:04:30.965Z,0.00
2023-05-02T02:05:30.913Z,0.00
2023-05-02T02:06:30.915Z,0.00
2023-05-02T02:07:30.850Z,0.00
2023-05-02T02:08:30.864Z,0.00
2023-05-02T02:09:30.850Z,0.00
2023-05-02T02:10:30.862Z,0.00
2023-05-02T02:11:30.786Z,0.00
2023-05-02T02:12:30.784Z,0.00
2023-05-02T02:13:30.774Z,0.00
2023-05-02T02:14:30.763Z,0.00
2023-05-02T02:15:30.756Z,0.00
2023-05-02T02:16:30.782Z,0.00
2023-05-02T02:17:30.768Z,0.00
2023-05-02T02:18:30.722Z,0.00
2023-05-02T02:19:30.702Z,0.00
2023-05-02T02:20:30.694Z,0.00
2023-05-02T02:21:30.707Z,0.00
2023-05-02T02:22:30.653Z,0.00
2023-05-02T02:23:30.636Z,0.00
2023-05-02T02:24:30.625Z,0.00
2023-05-02T02:25:30.614Z,0.00
2023-05-02T02:26:30.604Z,0.00
2023-05-02T02:27:30.616Z,0.00
2023-05-02T02:28:30.554Z,0.00
2023-05-02T02:29:30.599Z,0.00
2023-05-02T02:30:30.556Z,0.00
2023-05-02T02:31:30.654Z,0.00
2023-05-02T02:32:30.551Z,0.00
2023-05-02T02:33:30.501Z,0.00
2023-05-02T02:34:30.510Z,0.00
2023-05-02T02:35:30.485Z,0.00
2023-05-02T02:36:30.480Z,0.00
2023-05-02T02:37:30.429Z,0.00
2023-05-02T02:38:30.505Z,0.00
2023-05-02T02:39:30.409Z,0.00
2023-05-02T02:40:30.403Z,0.00
2023-05-02T02:41:30.413Z,0.00
2023-05-02T02:42:30.387Z,0.00
2023-05-02T02:43:30.356Z,0.00
2023-05-02T02:44:30.422Z,0.00
2023-05-02T02:45:30.363Z,0.00
2023-05-02T02:46:30.341Z,0.00
2023-05-02T02:47:30.384Z,0.00
2023-05-02T02:48:30.324Z,0.00
2023-05-02T02:49:30.286Z,0.00
2023-05-02T02:50:30.296Z,0.00
2023-05-02T02:51:30.236Z,0.00
2023-05-02T02:52:30.260Z,0.00
2023-05-02T02:53:30.241Z,0.00
2023-05-02T02:54:30.234Z,0.00
2023-05-02T02:55:30.217Z,0.00
2023-05-02T02:56:30.174Z,0.00
2023-05-02T02:57:30.150Z,0.00
2023-05-02T02:58:30.142Z,0.00
2023-05-02T02:59:30.156Z,0.00
2023-05-02T03:00:30.172Z,0.00
2023-05-02T03:01:30.127Z,0.00
2023-05-02T03:02:30.180Z,0.00
2023-05-02T03:03:30.107Z,0.00
2023-05-02T03:04:30.096Z,0.00
2023-05-02T03:05:30.048Z,0.00
2023-05-02T03:06:30.140Z,0.00
2023-05-02T03:07:30.085Z,0.00
2023-05-02T03:08:30.051Z,0.00
2023-05-02T03:09:29.986Z,0.00
2023-05-02T03:10:29.973Z,0.00
2023-05-02T03:11:30.014Z,0.00
2023-05-02T03:12:29.954Z,0.00
2023-05-02T03:13:29.960Z,0.00
2023-05-02T03:14:29.963Z,0.00
2023-05-02T03:15:29.916Z,0.00
2023-05-02T03:16:29.956Z,0.00
2023-05-02T03:17:29.908Z,0.00
2023-05-02T03:18:29.854Z,0.00
2023-05-02T03:19:29.871Z,0.00
2023-05-02T03:20:29.855Z,0.00
2023-05-02T03:21:29.852Z,0.00
2023-05-02T03:22:29.795Z,0.00
2023-05-02T03:23:29.812Z,0.00
2023-05-02T03:24:29.780Z,0.00
2023-05-02T03:25:29.778Z,0.00
2023-05-02T03:26:29.774Z,0.00
2023-05-02T03:27:29.727Z,0.00
2023-05-02T03:28:29.713Z,0.00
2023-05-02T03:29:29.705Z,0.00
2023-05-02T03:30:29.718Z,0.00
2023-05-02T03:31:29.724Z,0.00
2023-05-02T03:32:29.698Z,0.00
2023-05-02T03:33:29.661Z,0.00
2023-05-02T03:34:29.652Z,0.00
2023-05-02T03:35:29.663Z,0.00
2023-05-02T03:36:29.665Z,0.00
2023-05-02T03:37:29.611Z,0.00
2023-05-02T03:38:29.640Z,0.00
2023-05-02T03:39:29.612Z,0.00
2023-05-02T03:40:29.568Z,0.00
2023-05-02T03:41:29.545Z,0.00
2023-05-02T03:42:29.548Z,4.00
2023-05-02T03:43:29.524Z,0.00
2023-05-02T03:44:29.520Z,0.00
2023-05-02T03:45:29.503Z,0.00
2023-05-02T03:46:29.482Z,4.00
2023-05-02T03:47:29.501Z,4.00
2023-05-02T03:48:29.435Z,4.00
2023-05-02T03:49:29.455Z,4.00
2023-05-02T03:50:29.418Z,4.00
2023-05-02T03:51:29.404Z,4.00
2023-05-02T03:52:29.403Z,8.00
2023-05-02T03:53:29.350Z,8.00
2023-05-02T03:54:29.337Z,8.00
2023-05-02T03:55:29.367Z,8.00
2023-05-02T03:56:29.328Z,8.00
2023-05-02T03:57:29.330Z,12.00
2023-05-02T03:58:29.291Z,12.00
2023-05-02T03:59:29.297Z,8.00
2023-05-02T04:00:29.308Z,12.00
2023-05-02T04:01:29.271Z,12.00
2023-05-02T04:02:29.309Z,16.00
2023-05-02T04:03:30.106Z,16.00
2023-05-02T04:04:29.247Z,16.00
2023-05-02T04:05:29.195Z,16.00
2023-05-02T04:06:29.215Z,16.00
2023-05-02T04:07:29.195Z,16.00
2023-05-02T04:08:29.144Z,20.00
2023-05-02T04:09:29.144Z,20.00
2023-05-02T04:10:29.128Z,32.00
2023-05-02T04:11:29.182Z,32.00
2023-05-02T04:12:29.135Z,32.00
2023-05-02T04:13:29.126Z,36.00
2023-05-02T04:14:29.068Z,40.00
2023-05-02T04:15:29.108Z,40.00
2023-05-02T04:16:29.098Z,44.00
2023-05-02T04:17:29.108Z,48.00
2023-05-02T04:18:29.048Z,48.00
2023-05-02T04:19:28.997Z,48.00
2023-05-02T04:20:28.986Z,52.00
2023-05-02T04:21:29.008Z,56.00
2023-05-02T04:22:28.969Z,52.00
2023-05-02T04:23:28.951Z,48.00
2023-05-02T04:24:28.929Z,48.00
2023-05-02T04:25:28.921Z,48.00
2023-05-02T04:26:28.922Z,52.00
2023-05-02T04:27:28.892Z,56.00
2023-05-02T04:28:28.872Z,52.00
2023-05-02T04:29:28.865Z,56.00
2023-05-02T04:30:28.841Z,56.00
2023-05-02T04:31:28.916Z,60.00
2023-05-02T04:32:28.893Z,64.00
2023-05-02T04:33:28.834Z,68.00
2023-05-02T04:34:28.793Z,80.00
2023-05-02T04:35:28.823Z,84.00
2023-05-02T04:36:28.801Z,76.00
2023-05-02T04:37:28.760Z,76.00
2023-05-02T04:38:28.772Z,76.00
2023-05-02T04:39:28.735Z,68.00
2023-05-02T04:40:28.732Z,68.00
2023-05-02T04:41:28.748Z,76.00
2023-05-02T04:42:28.668Z,84.00
2023-05-02T04:43:28.662Z,80.00
2023-05-02T04:44:28.659Z,72.00
2023-05-02T04:45:28.637Z,84.00
2023-05-02T04:46:28.798Z,80.00
2023-05-02T04:47:29.229Z,76.00
2023-05-02T04:48:28.603Z,80.00
2023-05-02T04:49:28.576Z,100.00
2023-05-02T04:50:28.585Z,100.00
2023-05-02T04:51:28.554Z,96.00
2023-05-02T04:52:28.544Z,104.00
2023-05-02T04:53:28.524Z,96.00
2023-05-02T04:54:28.525Z,112.00
2023-05-02T04:55:28.481Z,112.00
2023-05-02T04:56:28.520Z,136.00
2023-05-02T04:57:28.452Z,164.00
2023-05-02T04:58:28.479Z,168.00
2023-05-02T04:59:28.472Z,176.00
2023-05-02T05:00:28.502Z,204.00
2023-05-02T05:01:28.436Z,200.00
2023-05-02T05:02:28.433Z,228.00
2023-05-02T05:03:28.421Z,256.00
2023-05-02T05:04:28.355Z,252.00
2023-05-02T05:05:28.428Z,256.00
2023-05-02T05:06:28.430Z,268.00
2023-05-02T05:07:28.321Z,280.00
2023-05-02T05:08:28.318Z,348.00
2023-05-02T05:09:28.273Z,352.00
2023-05-02T05:10:28.275Z,332.00
2023-05-02T05:11:28.267Z,400.00
2023-05-02T05:12:28.269Z,356.00
2023-05-02T05:13:28.298Z,408.00
2023-05-02T05:14:28.284Z,448.00
2023-05-02T05:15:28.269Z,500.00
2023-05-02T05:16:28.401Z,452.00
2023-05-02T05:17:28.228Z,316.00
2023-05-02T05:18:28.157Z,300.00
2023-05-02T05:19:28.153Z,300.00
2023-05-02T05:20:28.139Z,284.00
2023-05-02T05:21:28.123Z,276.00
2023-05-02T05:22:28.100Z,276.00
2023-05-02T05:23:28.130Z,308.00
2023-05-02T05:24:28.130Z,340.00
2023-05-02T05:25:28.082Z,372.00
2023-05-02T05:26:28.072Z,392.00
2023-05-02T05:27:28.039Z,428.00
2023-05-02T05:28:28.040Z,472.00
2023-05-02T05:29:28.018Z,500.00
2023-05-02T05:30:27.997Z,484.00
2023-05-02T05:31:28.032Z,480.00
2023-05-02T05:32:28.021Z,512.00
2023-05-02T05:33:27.986Z,588.00
2023-05-02T05:34:27.956Z,716.00
2023-05-02T05:35:27.962Z,800.00
2023-05-02T05:36:27.903Z,668.00
2023-05-02T05:37:27.900Z,588.00
2023-05-02T05:38:27.910Z,736.00
2023-05-02T05:39:27.941Z,748.00
2023-05-02T05:40:27.848Z,688.00
2023-05-02T05:41:27.928Z,680.00
2023-05-02T05:42:27.847Z,664.00
2023-05-02T05:43:27.844Z,684.00
2023-05-02T05:44:27.810Z,708.00
2023-05-02T05:45:27.803Z,708.00
2023-05-02T05:46:27.834Z,688.00
2023-05-02T05:47:27.822Z,700.00
2023-05-02T05:48:27.807Z,752.00
2023-05-02T05:49:27.744Z,744.00
2023-05-02T05:50:27.746Z,716.00
2023-05-02T05:51:27.720Z,680.00
2023-05-02T05:52:27.712Z,652.00
2023-05-02T05:53:27.666Z,656.00
2023-05-02T05:54:27.676Z,712.00
2023-05-02T05:55:27.691Z,788.00
2023-05-02T05:56:27.643Z,876.00
2023-05-02T05:57:27.679Z,820.00
2023-05-02T05:58:27.618Z,852.00
2023-05-02T05:59:27.601Z,1116.00
2023-05-02T06:00:27.622Z,1316.00
2023-05-02T06:01:27.575Z,1384.00
2023-05-02T06:02:30.062Z,1464.00
2023-05-02T06:03:27.706Z,1540.00
2023-05-02T06:04:27.578Z,1612.00
2023-05-02T06:05:27.520Z,1700.00
2023-05-02T06:06:27.657Z,1772.00
2023-05-02T06:07:27.495Z,1868.00
2023-05-02T06:08:27.460Z,1968.00
2023-05-02T06:09:27.460Z,1952.00
2023-05-02T06:10:27.433Z,1956.00
2023-05-02T06:11:27.434Z,1960.00
2023-05-02T06:12:27.437Z,2004.00
2023-05-02T06:13:27.408Z,2024.00
2023-05-02T06:14:27.428Z,1988.00
2023-05-02T06:15:27.407Z,1980.00
2023-05-02T06:16:27.387Z,1932.00
2023-05-02T06:17:27.360Z,1972.00
2023-05-02T06:18:27.356Z,2012.00
2023-05-02T06:19:27.361Z,2068.00
2023-05-02T06:20:27.285Z,2236.00
2023-05-02T06:21:27.306Z,2392.00
2023-05-02T06:22:27.253Z,2516.00
2023-05-02T06:23:27.295Z,2596.00
2023-05-02T06:24:27.244Z,2728.00
2023-05-02T06:25:27.238Z,2812.00
2023-05-02T06:26:27.227Z,2860.00
2023-05-02T06:27:27.198Z,2944.00
2023-05-02T06:28:27.215Z,3020.00
2023-05-02T06:29:27.158Z,3056.00
2023-05-02T06:30:27.159Z,3076.00
2023-05-02T06:31:27.170Z,3008.00
2023-05-02T06:32:27.173Z,2980.00
2023-05-02T06:33:27.124Z,3044.00
2023-05-02T06:34:27.106Z,3000.00
2023-05-02T06:35:27.094Z,2804.00
2023-05-02T06:36:27.077Z,2588.00
2023-05-02T06:37:27.060Z,2468.00
2023-05-02T06:38:27.071Z,2440.00
2023-05-02T06:39:27.157Z,2256.00
2023-05-02T06:40:27.095Z,2188.00
2023-05-02T06:41:27.034Z,2288.00
2023-05-02T06:42:26.997Z,2372.00
2023-05-02T06:43:27.048Z,2200.00
2023-05-02T06:44:26.996Z,2016.00
2023-05-02T06:45:27.020Z,1916.00
2023-05-02T06:46:26.961Z,1736.00
2023-05-02T06:47:28.317Z,1500.00
2023-05-02T06:48:26.954Z,1472.00
2023-05-02T06:49:28.351Z,1680.00
2023-05-02T06:50:26.944Z,1608.00
2023-05-02T06:51:26.844Z,1292.00
2023-05-02T06:52:26.900Z,1196.00
2023-05-02T06:53:26.856Z,1164.00
2023-05-02T06:54:26.856Z,1196.00
2023-05-02T06:55:26.848Z,1320.00
2023-05-02T06:56:28.168Z,1200.00
2023-05-02T06:57:26.780Z,1148.00
2023-05-02T06:58:26.789Z,1384.00
2023-05-02T06:59:26.748Z,1548.00
2023-05-02T07:00:26.840Z,1580.00
2023-05-02T07:01:26.825Z,1496.00
2023-05-02T07:02:26.766Z,1592.00
2023-05-02T07:03:26.680Z,1748.00
2023-05-02T07:04:26.763Z,1908.00
2023-05-02T07:05:26.653Z,1904.00
2023-05-02T07:06:26.735Z,1844.00
2023-05-02T07:07:26.639Z,1896.00
2023-05-02T07:08:26.614Z,2040.00
2023-05-02T07:09:26.618Z,2220.00
2023-05-02T07:10:27.974Z,2336.00
2023-05-02T07:11:28.077Z,2284.00
2023-05-02T07:12:26.673Z,2152.00
2023-05-02T07:13:28.863Z,2064.00
2023-05-02T07:14:29.671Z,2060.00
2023-05-02T07:15:27.448Z,2128.00
2023-05-02T07:16:26.911Z,2224.00
2023-05-02T07:17:28.935Z,2252.00
2023-05-02T07:18:26.498Z,2080.00
2023-05-02T07:19:26.620Z,2184.00
2023-05-02T07:20:26.485Z,2284.00
2023-05-02T07:21:26.474Z,2296.00
2023-05-02T07:22:27.836Z,2228.00
2023-05-02T07:23:26.390Z,2240.00
2023-05-02T07:24:26.433Z,2184.00
2023-05-02T07:25:31.081Z,2428.00
2023-05-02T07:26:26.354Z,2564.00
2023-05-02T07:27:26.351Z,2600.00
2023-05-02T07:28:26.330Z,2864.00
2023-05-02T07:29:26.321Z,2868.00
2023-05-02T07:30:26.278Z,2988.00
2023-05-02T07:31:26.280Z,2752.00
2023-05-02T07:32:26.517Z,2776.00
2023-05-02T07:33:26.325Z,2716.00
2023-05-02T07:34:26.264Z,2672.00
2023-05-02T07:35:26.255Z,2744.00
2023-05-02T07:36:26.196Z,3264.00
2023-05-02T07:37:26.270Z,3448.00
2023-05-02T07:38:26.277Z,3060.00
2023-05-02T07:39:26.173Z,2840.00
2023-05-02T07:40:26.221Z,2596.00
2023-05-02T07:41:26.175Z,2220.00
2023-05-02T07:42:26.124Z,2340.00
2023-05-02T07:43:26.134Z,2632.00
2023-05-02T07:44:26.062Z,2704.00
2023-05-02T07:45:26.107Z,3008.00
2023-05-02T07:46:26.095Z,2912.00
2023-05-02T07:47:26.073Z,2412.00
2023-05-02T07:48:27.817Z,2292.00
2023-05-02T07:49:26.040Z,2296.00
2023-05-02T07:50:25.988Z,2704.00
2023-05-02T07:51:25.991Z,3404.00
2023-05-02T07:52:26.004Z,3248.00
2023-05-02T07:53:25.943Z,3248.00
2023-05-02T07:54:25.975Z,3612.00
2023-05-02T07:55:25.942Z,4080.00
2023-05-02T07:56:25.923Z,4300.00
2023-05-02T07:57:25.899Z,4220.00
2023-05-02T07:58:25.868Z,3972.00
2023-05-02T07:59:25.840Z,3844.00
2023-05-02T08:00:25.907Z,4056.00
2023-05-02T08:01:25.872Z,4432.00
2023-05-02T08:02:25.904Z,4896.00
2023-05-02T08:03:26.018Z,4508.00
2023-05-02T08:04:25.953Z,3940.00
2023-05-02T08:05:25.792Z,3720.00
2023-05-02T08:06:25.774Z,3792.00
2023-05-02T08:07:25.770Z,3308.00
2023-05-02T08:08:25.757Z,2432.00
2023-05-02T08:09:25.763Z,1820.00
2023-05-02T08:10:25.702Z,1756.00
2023-05-02T08:11:25.678Z,1976.00
2023-05-02T08:12:25.724Z,2140.00
2023-05-02T08:13:25.658Z,2176.00
2023-05-02T08:14:25.667Z,2224.00
2023-05-02T08:15:25.618Z,2744.00
2023-05-02T08:16:25.675Z,3184.00
2023-05-02T08:17:25.622Z,3376.00
2023-05-02T08:18:25.596Z,3900.00
2023-05-02T08:19:25.578Z,4160.00
2023-05-02T08:20:25.630Z,4092.00
2023-05-02T08:21:25.554Z,3796.00
2023-05-02T08:22:25.514Z,3476.00
2023-05-02T08:23:25.497Z,3312.00
2023-05-02T08:24:25.498Z,3192.00
2023-05-02T08:25:25.458Z,3128.00
2023-05-02T08:26:25.466Z,3332.00
2023-05-02T08:27:25.433Z,3508.00
2023-05-02T08:28:25.465Z,3324.00
2023-05-02T08:29:25.418Z,3104.00
2023-05-02T08:30:25.491Z,2964.00
2023-05-02T08:31:25.522Z,2916.00
2023-05-02T08:32:25.429Z,2976.00
2023-05-02T08:33:25.408Z,3192.00
2023-05-02T08:34:25.512Z,3484.00
2023-05-02T08:35:25.373Z,3584.00
2023-05-02T08:36:25.343Z,3676.00
2023-05-02T08:37:25.318Z,3796.00
2023-05-02T08:38:25.321Z,3960.00
2023-05-02T08:39:25.308Z,4220.00
2023-05-02T08:40:34.075Z,4512.00
2023-05-02T08:41:26.267Z,4744.00
2023-05-02T08:42:25.236Z,4956.00
2023-05-02T08:43:25.230Z,5124.00
2023-05-02T08:44:25.224Z,5204.00
2023-05-02T08:45:25.198Z,5240.00
2023-05-02T08:46:25.201Z,5328.00
2023-05-02T08:47:25.606Z,5396.00
2023-05-02T08:48:25.182Z,5552.00
2023-05-02T08:49:25.147Z,5644.00
2023-05-02T08:50:25.102Z,5612.00
2023-05-02T08:51:25.099Z,5900.00
2023-05-02T08:52:25.118Z,6308.00
2023-05-02T08:53:25.065Z,6664.00
2023-05-02T08:54:25.075Z,6728.00
2023-05-02T08:55:25.059Z,6724.00
2023-05-02T08:56:25.022Z,6944.00
2023-05-02T08:57:25.008Z,7000.00
2023-05-02T08:58:25.013Z,6960.00
2023-05-02T08:59:25.017Z,7060.00
2023-05-02T09:00:24.970Z,7116.00
2023-05-02T09:01:24.994Z,7044.00
2023-05-02T09:02:24.969Z,7016.00
2023-05-02T09:03:24.980Z,7212.00
2023-05-02T09:04:24.951Z,7456.00
2023-05-02T09:05:26.552Z,7684.00
2023-05-02T09:06:24.918Z,7976.00
2023-05-02T09:07:24.891Z,7976.00
2023-05-02T09:08:24.855Z,7900.00
2023-05-02T09:09:24.869Z,7660.00
2023-05-02T09:10:24.846Z,7552.00
2023-05-02T09:11:24.816Z,7364.00
2023-05-02T09:12:24.813Z,7320.00
2023-05-02T09:13:24.791Z,7240.00
2023-05-02T09:14:24.765Z,7152.00
2023-05-02T09:15:24.746Z,7252.00
2023-05-02T09:16:24.758Z,7412.00
2023-05-02T09:17:24.745Z,7516.00
2023-05-02T09:18:24.803Z,7672.00
2023-05-02T09:19:24.731Z,7640.00
2023-05-02T09:20:24.719Z,7648.00
2023-05-02T09:21:24.688Z,7644.00
2023-05-02T09:22:24.681Z,7604.00
2023-05-02T09:23:24.717Z,7556.00
2023-05-02T09:24:24.657Z,7436.00
2023-05-02T09:25:24.657Z,7420.00
2023-05-02T09:26:24.658Z,7492.00
2023-05-02T09:27:24.617Z,7576.00
2023-05-02T09:28:24.602Z,7672.00
2023-05-02T09:29:24.613Z,7792.00
2023-05-02T09:30:24.595Z,7876.00
2023-05-02T09:31:43.646Z,8016.00
2023-05-02T09:32:25.617Z,8144.00
2023-05-02T09:33:24.520Z,8168.00
2023-05-02T09:34:24.549Z,8104.00
2023-05-02T09:35:24.560Z,8220.00
2023-05-02T09:36:24.528Z,8488.00
2023-05-02T09:37:24.479Z,7972.00
2023-05-02T09:38:24.463Z,7824.00
2023-05-02T09:39:25.761Z,7556.00
2023-05-02T09:40:31.989Z,7420.00
2023-05-02T09:41:24.440Z,7380.00
2023-05-02T09:42:24.411Z,6976.00
2023-05-02T09:43:24.389Z,6796.00
2023-05-02T09:44:24.385Z,6784.00
2023-05-02T09:45:24.408Z,6804.00
2023-05-02T09:46:24.439Z,6884.00
2023-05-02T09:47:24.374Z,6688.00
2023-05-02T09:48:24.322Z,6520.00
2023-05-02T09:49:24.321Z,6800.00
2023-05-02T09:50:24.364Z,7080.00
2023-05-02T09:51:24.287Z,7412.00
2023-05-02T09:52:24.402Z,7752.00
2023-05-02T09:53:24.272Z,8292.00
2023-05-02T09:54:24.280Z,8276.00
2023-05-02T09:55:24.310Z,8044.00
2023-05-02T09:56:25.987Z,7648.00
2023-05-02T09:57:24.230Z,6948.00
2023-05-02T09:58:24.383Z,6408.00
2023-05-02T09:59:24.206Z,6384.00
2023-05-02T10:00:24.222Z,6588.00
2023-05-02T10:01:24.143Z,7036.00
2023-05-02T10:02:24.185Z,7536.00
2023-05-02T10:03:24.109Z,7524.00
2023-05-02T10:04:24.213Z,7252.00
2023-05-02T10:05:24.113Z,6656.00
2023-05-02T10:06:24.151Z,6040.00
2023-05-02T10:07:24.119Z,5508.00
2023-05-02T10:08:24.065Z,5024.00
2023-05-02T10:09:24.214Z,4692.00
2023-05-02T10:10:24.181Z,4320.00
2023-05-02T10:11:24.059Z,4076.00
2023-05-02T10:12:24.042Z,3884.00
2023-05-02T10:13:23.995Z,3708.00
2023-05-02T10:14:23.988Z,3552.00
2023-05-02T10:15:24.134Z,3628.00
2023-05-02T10:16:24.020Z,3948.00
2023-05-02T10:17:24.011Z,4276.00
2023-05-02T10:18:23.938Z,4544.00
2023-05-02T10:19:23.904Z,4860.00
2023-05-02T10:20:23.909Z,5104.00
2023-05-02T10:21:23.889Z,5356.00
2023-05-02T10:22:23.889Z,5564.00
2023-05-02T10:23:23.862Z,5736.00
2023-05-02T10:24:23.834Z,5836.00
2023-05-02T10:25:23.830Z,6024.00
2023-05-02T10:26:23.836Z,6360.00
2023-05-02T10:27:23.814Z,6820.00
2023-05-02T10:28:23.936Z,7240.00
2023-05-02T10:29:23.777Z,7652.00
2023-05-02T10:30:23.763Z,7808.00
2023-05-02T10:31:23.938Z,7856.00
2023-05-02T10:32:23.745Z,7836.00
2023-05-02T10:33:23.829Z,7748.00
2023-05-02T10:34:23.821Z,7752.00
2023-05-02T10:35:23.686Z,7864.00
2023-05-02T10:36:24.028Z,8048.00
2023-05-02T10:37:23.693Z,8128.00
2023-05-02T10:38:24.795Z,8188.00
2023-05-02T10:39:23.633Z,8000.00
2023-05-02T10:40:23.640Z,7836.00
2023-05-02T10:41:23.737Z,7772.00
2023-05-02T10:42:23.614Z,7740.00
2023-05-02T10:43:23.644Z,7852.00
2023-05-02T10:44:23.621Z,7900.00
2023-05-02T10:45:23.559Z,7852.00
2023-05-02T10:46:23.592Z,7712.00
2023-05-02T10:47:23.604Z,7684.00
2023-05-02T10:48:23.522Z,7828.00
2023-05-02T10:49:23.693Z,8008.00
2023-05-02T10:50:23.542Z,8188.00
2023-05-02T10:51:23.511Z,8012.00
2023-05-02T10:52:23.481Z,7840.00
2023-05-02T10:53:23.549Z,7736.00
2023-05-02T10:54:23.458Z,7584.00
2023-05-02T10:55:23.508Z,7564.00
2023-05-02T10:56:23.419Z,7604.00
2023-05-02T10:57:23.431Z,7720.00
2023-05-02T10:58:23.390Z,7620.00
2023-05-02T10:59:23.395Z,7608.00
2023-05-02T11:01:26.258Z,7636.00
2023-05-02T11:02:26.246Z,7692.00
2023-05-02T11:03:26.230Z,7760.00
2023-05-02T11:04:26.165Z,7796.00
2023-05-02T11:05:26.155Z,7668.00
2023-05-02T11:06:26.126Z,7628.00
2023-05-02T11:07:26.165Z,7628.00
2023-05-02T11:08:26.093Z,7548.00
2023-05-02T11:09:26.218Z,7504.00
2023-05-02T11:10:26.124Z,7636.00
2023-05-02T11:11:26.091Z,7856.00
2023-05-02T11:12:26.037Z,8196.00
2023-05-02T11:13:26.022Z,8396.00
2023-05-02T11:14:26.107Z,8328.00
2023-05-02T11:15:26.005Z,8424.00
2023-05-02T11:16:26.027Z,8536.00
2023-05-02T11:17:25.990Z,8040.00
2023-05-02T11:18:25.976Z,8640.00
2023-05-02T11:19:25.943Z,8072.00
2023-05-02T11:20:26.001Z,8532.00
2023-05-02T11:21:25.953Z,8708.00
2023-05-02T11:22:25.944Z,7152.00
2023-05-02T11:23:26.165Z,7136.00
2023-05-02T11:24:25.931Z,7308.00
2023-05-02T11:25:25.927Z,7648.00
2023-05-02T11:26:25.834Z,7436.00
2023-05-02T11:27:25.837Z,7352.00
2023-05-02T11:28:25.823Z,7532.00
2023-05-02T11:29:25.788Z,7300.00
2023-05-02T11:30:25.776Z,7400.00
2023-05-02T11:31:25.857Z,7508.00
2023-05-02T11:32:26.000Z,7668.00
2023-05-02T11:33:25.799Z,7828.00
2023-05-02T11:34:25.793Z,7980.00
2023-05-02T11:35:25.730Z,8100.00
2023-05-02T11:36:25.696Z,8108.00
2023-05-02T11:37:25.727Z,8284.00
2023-05-02T11:38:25.676Z,8452.00
2023-05-02T11:43:04.265Z,8756.00
2023-05-02T11:47:24.515Z,8668.00
2023-05-02T11:48:24.470Z,8640.00
2023-05-02T11:49:24.531Z,8624.00
2023-05-02T11:50:24.461Z,8704.00
2023-05-02T11:51:24.440Z,8728.00
2023-05-02T11:52:24.440Z,8740.00
2023-05-02T11:53:24.604Z,8612.00
2023-05-02T11:54:24.420Z,8184.00
2023-05-02T11:55:24.404Z,7964.00
2023-05-02T11:56:24.435Z,7660.00
2023-05-02T11:57:24.377Z,7484.00
2023-05-02T11:58:24.516Z,7012.00
2023-05-02T11:59:24.499Z,6820.00
2023-05-02T12:00:24.441Z,6688.00
2023-05-02T12:01:24.355Z,6620.00
2023-05-02T12:02:24.447Z,6852.00
2023-05-02T12:03:24.489Z,7016.00
2023-05-02T12:04:24.308Z,7240.00
2023-05-02T12:05:24.365Z,7668.00
2023-05-02T12:06:24.346Z,7796.00
2023-05-02T12:07:24.246Z,8016.00
2023-05-02T12:08:24.448Z,8252.00
2023-05-02T12:09:24.216Z,12256.00
2023-05-02T12:10:24.177Z,12448.00
2023-05-02T12:11:24.216Z,13120.00
2023-05-02T12:12:24.214Z,8472.00
2023-05-02T12:13:24.166Z,8068.00
2023-05-02T12:14:24.264Z,7908.00
2023-05-02T12:15:24.136Z,7572.00
2023-05-02T12:16:24.161Z,7340.00
2023-05-02T12:17:24.210Z,7116.00
2023-05-02T12:18:24.138Z,6896.00
2023-05-02T12:19:24.058Z,6724.00
2023-05-02T12:20:24.088Z,6708.00
2023-05-02T12:21:24.107Z,6736.00
2023-05-02T12:22:24.109Z,6832.00
2023-05-02T12:23:24.052Z,6916.00
2023-05-02T12:24:24.013Z,7108.00
2023-05-02T12:25:24.015Z,7916.00
2023-05-02T12:26:24.006Z,9728.00
2023-05-02T12:27:23.946Z,11160.00
2023-05-02T12:28:24.048Z,11224.00
2023-05-02T12:29:23.931Z,11056.00
2023-05-02T12:30:23.910Z,11096.00
2023-05-02T12:31:24.052Z,10876.00
2023-05-02T12:32:24.519Z,10416.00
2023-05-02T12:33:24.029Z,5380.00
2023-05-02T12:34:23.870Z,4760.00
2023-05-02T12:35:23.848Z,4312.00
2023-05-02T12:36:23.861Z,3968.00
2023-05-02T12:37:23.891Z,3952.00
2023-05-02T12:38:23.815Z,4256.00
2023-05-02T12:39:23.835Z,3724.00
2023-05-02T12:40:23.795Z,3804.00